createdAt,value
2022-07-26T00:01:25.895Z,19.70
2022-07-26T00:04:01.463Z,19.70
2022-07-26T00:06:30.246Z,19.70
2022-07-26T00:08:58.625Z,19.70
2022-07-26T00:11:28.817Z,19.70
2022-07-26T00:13:57.245Z,19.60
2022-07-26T00:16:34.300Z,19.60
2022-07-26T00:19:02.718Z,19.60
2022-07-26T00:21:31.798Z,19.60
2022-07-26T00:24:00.198Z,19.50
2022-07-26T00:26:29.961Z,19.50
2022-07-26T00:28:58.607Z,19.50
2022-07-26T00:31:26.992Z,19.50
2022-07-26T00:33:55.416Z,19.40
2022-07-26T00:36:23.842Z,19.50
2022-07-26T00:38:52.241Z,19.40
2022-07-26T00:41:20.654Z,19.40
2022-07-26T00:44:01.656Z,19.50
2022-07-26T00:46:30.108Z,19.50
2022-07-26T00:49:00.670Z,19.40
2022-07-26T00:51:39.201Z,19.40
2022-07-26T00:54:07.970Z,19.40
2022-07-26T00:56:36.810Z,19.40
2022-07-26T00:59:06.949Z,19.30
2022-07-26T01:01:35.671Z,19.30
2022-07-26T01:04:04.134Z,19.30
2022-07-26T01:06:32.592Z,19.30
2022-07-26T01:09:01.582Z,19.20
2022-07-26T01:11:29.910Z,19.20
2022-07-26T01:13:58.323Z,19.30
2022-07-26T01:16:28.417Z,19.20
2022-07-26T01:18:56.863Z,19.20
2022-07-26T01:21:30.078Z,19.20
2022-07-26T01:23:58.725Z,19.10
2022-07-26T01:26:27.140Z,19.10
2022-07-26T01:28:55.494Z,19.20
2022-07-26T01:31:27.441Z,19.10
2022-07-26T01:33:56.239Z,19.20
2022-07-26T01:36:24.689Z,19.20
2022-07-26T01:38:55.311Z,19.20
2022-07-26T01:41:37.755Z,19.20
2022-07-26T01:44:08.287Z,19.20
2022-07-26T01:46:37.403Z,19.20
2022-07-26T01:49:07.252Z,19.20
2022-07-26T01:51:36.508Z,19.20
2022-07-26T01:54:06.759Z,19.20
2022-07-26T01:56:35.340Z,19.20
2022-07-26T01:59:03.819Z,19.10
2022-07-26T02:01:38.963Z,19.10
2022-07-26T02:04:28.788Z,19.10
2022-07-26T02:07:05.616Z,19.00
2022-07-26T02:09:42.687Z,18.90
2022-07-26T02:12:11.478Z,18.90
2022-07-26T02:14:39.789Z,18.90
2022-07-26T02:17:08.386Z,18.90
2022-07-26T02:19:37.069Z,18.90
2022-07-26T02:22:05.704Z,18.90
2022-07-26T02:24:34.466Z,18.90
2022-07-26T02:27:04.862Z,18.90
2022-07-26T02:29:33.711Z,19.00
2022-07-26T02:32:02.141Z,19.00
2022-07-26T02:34:33.767Z,18.90
2022-07-26T02:37:02.917Z,19.00
2022-07-26T02:39:34.696Z,18.90
2022-07-26T02:42:05.167Z,18.90
2022-07-26T02:44:34.856Z,18.90
2022-07-26T02:47:04.268Z,18.90
2022-07-26T02:49:32.698Z,18.90
2022-07-26T02:52:00.979Z,18.80
2022-07-26T02:54:29.345Z,18.80
2022-07-26T02:56:57.750Z,18.80
2022-07-26T02:59:27.478Z,18.70
2022-07-26T03:01:58.452Z,18.70
2022-07-26T03:04:26.955Z,18.70
2022-07-26T03:06:55.351Z,18.60
2022-07-26T03:09:23.887Z,18.70
2022-07-26T03:11:52.257Z,18.60
2022-07-26T03:14:20.647Z,18.60
2022-07-26T03:16:50.492Z,18.60
2022-07-26T03:19:18.881Z,18.60
2022-07-26T03:21:47.137Z,18.60
2022-07-26T03:24:15.682Z,18.60
2022-07-26T03:26:44.178Z,18.50
2022-07-26T03:29:12.561Z,18.50
2022-07-26T03:31:41.011Z,18.50
2022-07-26T03:34:11.191Z,18.50
2022-07-26T03:36:39.907Z,18.50
2022-07-26T03:39:08.220Z,18.50
2022-07-26T03:41:36.823Z,18.50
2022-07-26T03:44:05.768Z,18.40
2022-07-26T03:46:34.552Z,18.50
2022-07-26T03:49:03.088Z,18.50
2022-07-26T03:51:33.973Z,18.40
2022-07-26T03:54:02.373Z,18.40
2022-07-26T03:56:31.791Z,18.40
2022-07-26T03:59:01.381Z,18.30
2022-07-26T04:01:30.277Z,18.30
2022-07-26T04:03:58.991Z,18.30
2022-07-26T04:06:27.563Z,18.30
2022-07-26T04:08:57.318Z,18.30
2022-07-26T04:11:26.526Z,18.30
2022-07-26T04:13:56.832Z,18.30
2022-07-26T04:16:25.335Z,18.30
2022-07-26T04:18:55.452Z,18.30
2022-07-26T04:21:23.907Z,18.20
2022-07-26T04:23:52.483Z,18.20
2022-07-26T04:26:22.473Z,18.20
2022-07-26T04:28:51.084Z,18.20
2022-07-26T04:31:20.091Z,18.20
2022-07-26T04:33:48.444Z,18.20
2022-07-26T04:36:16.897Z,18.20
2022-07-26T04:38:45.521Z,18.20
2022-07-26T04:41:14.068Z,18.20
2022-07-26T04:43:43.743Z,18.10
2022-07-26T04:46:12.154Z,18.10
2022-07-26T04:48:40.578Z,18.10
2022-07-26T04:51:08.886Z,18.20
2022-07-26T04:53:37.215Z,18.20
2022-07-26T04:56:06.115Z,18.20
2022-07-26T04:58:34.537Z,18.10
2022-07-26T05:01:11.658Z,18.20
2022-07-26T05:03:40.169Z,18.20
2022-07-26T05:06:16.075Z,18.20
2022-07-26T05:08:44.550Z,18.20
2022-07-26T05:11:12.925Z,18.20
2022-07-26T05:13:41.365Z,18.20
2022-07-26T05:16:11.558Z,18.20
2022-07-26T05:18:45.758Z,18.20
2022-07-26T05:21:18.022Z,18.30
2022-07-26T05:23:46.401Z,18.20
2022-07-26T05:26:14.885Z,18.30
2022-07-26T05:28:43.426Z,18.30
2022-07-26T05:31:13.371Z,18.30
2022-07-26T05:33:41.780Z,18.40
2022-07-26T05:36:10.536Z,18.40
2022-07-26T05:38:39.453Z,18.50
2022-07-26T05:41:07.999Z,18.50
2022-07-26T05:43:41.040Z,18.50
2022-07-26T05:46:16.058Z,18.60
2022-07-26T05:48:44.940Z,18.60
2022-07-26T05:51:13.398Z,18.60
2022-07-26T05:53:41.797Z,18.60
2022-07-26T05:56:12.262Z,18.50
2022-07-26T05:58:40.741Z,18.60
2022-07-26T06:01:09.189Z,18.70
2022-07-26T06:03:39.582Z,18.80
2022-07-26T06:06:08.399Z,18.80
2022-07-26T06:08:37.631Z,18.80
2022-07-26T06:11:06.395Z,18.80
2022-07-26T06:13:34.891Z,18.80
2022-07-26T06:16:05.770Z,18.80
2022-07-26T06:18:35.965Z,18.80
2022-07-26T06:21:09.280Z,18.80
2022-07-26T06:23:37.673Z,18.80
2022-07-26T06:26:06.627Z,18.80
2022-07-26T06:28:35.044Z,18.80
2022-07-26T06:31:03.431Z,18.70
2022-07-26T06:33:31.932Z,18.80
2022-07-26T06:36:00.920Z,18.90
2022-07-26T06:38:30.731Z,18.90
2022-07-26T06:41:18.213Z,19.00
2022-07-26T06:44:10.150Z,19.00
2022-07-26T06:46:38.922Z,19.00
2022-07-26T06:49:07.384Z,19.10
2022-07-26T06:51:35.835Z,19.10
2022-07-26T06:54:08.686Z,19.10
2022-07-26T06:56:37.343Z,19.10
2022-07-26T06:59:09.348Z,19.20
2022-07-26T07:01:51.806Z,19.30
2022-07-26T07:04:26.474Z,19.30
2022-07-26T07:06:54.920Z,19.30
2022-07-26T07:09:26.497Z,19.40
2022-07-26T07:12:01.161Z,19.70
2022-07-26T07:14:34.141Z,19.90
2022-07-26T07:17:02.620Z,20.30
2022-07-26T07:19:39.794Z,20.70
2022-07-26T07:22:12.001Z,20.80
2022-07-26T07:24:43.442Z,21.00
2022-07-26T07:27:12.421Z,21.30
2022-07-26T07:29:42.037Z,21.30
2022-07-26T07:32:18.264Z,21.20
2022-07-26T07:34:48.888Z,21.30
2022-07-26T07:37:17.473Z,21.40
2022-07-26T07:39:50.101Z,21.60
2022-07-26T07:42:20.102Z,21.80
2022-07-26T07:44:50.080Z,22.10
2022-07-26T07:47:18.953Z,22.70
2022-07-26T07:49:47.398Z,23.00
2022-07-26T07:52:15.838Z,23.10
2022-07-26T07:54:44.316Z,23.30
2022-07-26T07:57:14.066Z,23.20
2022-07-26T07:59:42.766Z,23.40
2022-07-26T08:02:12.826Z,23.60
2022-07-26T08:04:41.336Z,24.00
2022-07-26T08:07:09.926Z,24.50
2022-07-26T08:09:38.406Z,24.60
2022-07-26T08:12:17.379Z,24.90
2022-07-26T08:14:45.778Z,24.60
2022-07-26T08:17:14.135Z,24.60
2022-07-26T08:19:42.622Z,24.80
2022-07-26T08:22:12.189Z,24.80
2022-07-26T08:24:40.619Z,24.70
2022-07-26T08:27:08.998Z,24.70
2022-07-26T08:29:38.707Z,24.60
2022-07-26T08:32:07.761Z,24.80
2022-07-26T08:34:36.464Z,25.20
2022-07-26T08:37:17.179Z,25.20
2022-07-26T08:39:46.498Z,25.80
2022-07-26T08:42:16.141Z,25.60
2022-07-26T08:44:47.212Z,25.30
2022-07-26T08:47:17.501Z,26.00
2022-07-26T08:50:04.235Z,26.30
2022-07-26T08:52:32.690Z,25.80
2022-07-26T08:55:01.054Z,25.50
2022-07-26T08:57:29.406Z,26.00
2022-07-26T09:00:19.214Z,26.70
2022-07-26T09:02:48.609Z,26.40
2022-07-26T09:05:19.193Z,26.00
2022-07-26T09:07:47.676Z,25.70
2022-07-26T09:10:17.262Z,25.60
2022-07-26T09:12:47.249Z,25.30
2022-07-26T09:15:27.736Z,25.00
2022-07-26T09:17:58.738Z,24.80
2022-07-26T09:20:28.650Z,24.70
2022-07-26T09:22:59.594Z,24.60
2022-07-26T09:25:29.935Z,24.70
2022-07-26T09:27:59.506Z,24.60
2022-07-26T09:30:30.061Z,24.60
2022-07-26T09:33:04.370Z,24.40
2022-07-26T09:35:51.095Z,24.20
2022-07-26T09:38:20.653Z,24.20
2022-07-26T09:40:51.353Z,24.10
2022-07-26T09:43:23.690Z,24.20
2022-07-26T09:46:07.838Z,24.30
2022-07-26T09:49:08.256Z,24.40
2022-07-26T09:51:38.689Z,24.80
2022-07-26T09:54:07.196Z,25.00
2022-07-26T09:56:47.650Z,25.00
2022-07-26T09:59:17.140Z,25.00
2022-07-26T10:01:47.661Z,25.70
2022-07-26T10:04:16.934Z,26.20
2022-07-26T10:06:45.557Z,26.50
2022-07-26T10:09:14.478Z,27.10
2022-07-26T10:11:53.531Z,27.00
2022-07-26T10:14:42.111Z,26.70
2022-07-26T10:17:46.947Z,26.40
2022-07-26T10:20:45.899Z,26.10
2022-07-26T10:23:42.615Z,26.10
2022-07-26T10:26:14.067Z,26.00
2022-07-26T10:28:42.913Z,26.00
2022-07-26T10:31:31.292Z,26.20
2022-07-26T10:34:01.583Z,26.40
2022-07-26T10:36:33.969Z,26.40
2022-07-26T10:39:14.284Z,26.60
2022-07-26T10:41:46.142Z,26.70
2022-07-26T10:44:24.798Z,26.80
2022-07-26T10:46:58.674Z,27.10
2022-07-26T10:49:36.191Z,27.60
2022-07-26T10:52:18.359Z,27.60
2022-07-26T10:55:18.075Z,27.50
2022-07-26T10:57:50.386Z,27.30
2022-07-26T11:00:22.186Z,27.40
2022-07-26T11:02:57.226Z,27.40
2022-07-26T11:05:30.915Z,27.10
2022-07-26T11:08:11.329Z,27.20
2022-07-26T11:10:42.378Z,27.20
2022-07-26T11:13:16.940Z,27.30
2022-07-26T11:15:47.950Z,27.20
2022-07-26T11:18:22.699Z,27.00
2022-07-26T11:20:54.393Z,27.10
2022-07-26T11:23:36.441Z,27.10
2022-07-26T11:26:23.641Z,27.00
2022-07-26T11:28:57.750Z,26.90
2022-07-26T11:31:51.553Z,26.90
2022-07-26T11:34:26.193Z,27.00
2022-07-26T11:36:57.859Z,27.10
2022-07-26T11:39:29.684Z,27.10
2022-07-26T11:41:59.658Z,27.20
2022-07-26T11:44:29.030Z,27.10
2022-07-26T11:46:58.502Z,27.30
2022-07-26T11:50:00.749Z,27.40
2022-07-26T11:52:20.796Z,27.20
2022-07-26T11:54:55.806Z,27.10
2022-07-26T11:57:30.081Z,27.20
2022-07-26T12:00:00.399Z,27.30
2022-07-26T12:02:30.144Z,27.50
2022-07-26T12:05:15.507Z,27.90
2022-07-26T12:07:58.889Z,28.70
2022-07-26T12:10:29.538Z,29.30
2022-07-26T12:13:09.228Z,29.20
2022-07-26T12:15:48.880Z,28.90
2022-07-26T12:18:28.155Z,28.80
2022-07-26T12:21:04.975Z,28.40
2022-07-26T12:23:45.858Z,28.20
2022-07-26T12:26:26.708Z,27.80
2022-07-26T12:28:55.413Z,27.50
2022-07-26T12:31:25.758Z,27.30
2022-07-26T12:33:54.368Z,27.00
2022-07-26T12:36:27.626Z,27.00
2022-07-26T12:38:58.354Z,26.90
2022-07-26T12:41:35.795Z,26.80
2022-07-26T12:44:04.912Z,26.70
2022-07-26T12:46:34.340Z,26.80
2022-07-26T12:49:03.810Z,26.70
2022-07-26T12:51:32.411Z,26.70
2022-07-26T12:54:00.868Z,27.00
2022-07-26T12:56:29.262Z,27.30
2022-07-26T12:59:01.500Z,27.50
2022-07-26T13:01:31.046Z,27.50
2022-07-26T13:03:59.525Z,27.70
2022-07-26T13:06:27.908Z,27.80
2022-07-26T13:08:56.624Z,27.70
2022-07-26T13:11:32.743Z,27.50
2022-07-26T13:14:02.527Z,27.40
2022-07-26T13:16:30.959Z,27.10
2022-07-26T13:18:59.381Z,27.20
2022-07-26T13:21:33.370Z,27.40
2022-07-26T13:24:02.070Z,27.50
2022-07-26T13:26:30.370Z,27.50
2022-07-26T13:28:59.709Z,27.50
2022-07-26T13:31:29.574Z,27.40
2022-07-26T13:33:57.894Z,27.20
2022-07-26T13:36:26.365Z,26.90
2022-07-26T13:38:54.693Z,26.80
2022-07-26T13:41:23.121Z,26.80
2022-07-26T13:43:52.914Z,27.10
2022-07-26T13:46:21.930Z,27.30
2022-07-26T13:49:00.616Z,27.30
2022-07-26T13:51:50.208Z,27.20
2022-07-26T13:54:20.021Z,26.90
2022-07-26T13:56:49.073Z,26.60
2022-07-26T13:59:18.085Z,26.50
2022-07-26T14:01:46.895Z,26.50
2022-07-26T14:04:17.476Z,26.50
2022-07-26T14:06:46.323Z,26.50
2022-07-26T14:09:14.920Z,26.50
2022-07-26T14:11:49.747Z,26.40
2022-07-26T14:14:18.405Z,26.40
2022-07-26T14:16:48.192Z,26.50
2022-07-26T14:19:19.477Z,26.50
2022-07-26T14:21:59.543Z,26.50
2022-07-26T14:24:29.209Z,26.50
2022-07-26T14:26:59.491Z,26.60
2022-07-26T14:29:29.036Z,26.50
2022-07-26T14:31:57.588Z,26.50
2022-07-26T14:34:27.487Z,26.40
2022-07-26T14:36:58.841Z,26.30
2022-07-26T14:39:27.477Z,26.40
2022-07-26T14:41:55.974Z,26.50
2022-07-26T14:44:25.989Z,26.50
2022-07-26T14:46:54.769Z,26.30
2022-07-26T14:49:23.221Z,26.40
2022-07-26T14:51:57.763Z,26.60
2022-07-26T14:54:26.118Z,26.70
2022-07-26T14:56:54.900Z,26.70
2022-07-26T14:59:23.227Z,26.50
2022-07-26T15:01:52.129Z,26.50
2022-07-26T15:04:20.640Z,26.50
2022-07-26T15:06:49.003Z,26.40
2022-07-26T15:09:18.742Z,26.30
2022-07-26T15:11:49.352Z,26.10
2022-07-26T15:14:17.756Z,26.00
2022-07-26T15:16:46.254Z,26.00
2022-07-26T15:19:14.635Z,25.80
2022-07-26T15:21:43.008Z,25.80
2022-07-26T15:24:14.179Z,25.70
2022-07-26T15:26:45.725Z,25.70
2022-07-26T15:29:15.393Z,25.90
2022-07-26T15:31:44.444Z,26.00
2022-07-26T15:34:13.263Z,26.00
2022-07-26T15:36:42.019Z,25.90
2022-07-26T15:39:18.269Z,25.90
2022-07-26T15:41:49.658Z,25.80
2022-07-26T15:44:19.604Z,25.60
2022-07-26T15:46:50.150Z,25.70
2022-07-26T15:49:19.269Z,25.60
2022-07-26T15:51:47.783Z,25.50
2022-07-26T15:54:16.760Z,25.50
2022-07-26T15:56:45.270Z,25.40
2022-07-26T15:59:15.005Z,25.30
2022-07-26T16:01:43.678Z,25.20
2022-07-26T16:04:12.526Z,25.20
2022-07-26T16:06:41.105Z,25.20
2022-07-26T16:09:18.661Z,25.30
2022-07-26T16:11:48.890Z,25.30
2022-07-26T16:14:18.907Z,25.10
2022-07-26T16:16:47.482Z,25.10
2022-07-26T16:19:16.164Z,25.00
2022-07-26T16:21:44.655Z,24.80
2022-07-26T16:24:13.050Z,24.70
2022-07-26T16:26:42.446Z,24.70
2022-07-26T16:29:11.512Z,24.70
2022-07-26T16:31:42.039Z,24.70
2022-07-26T16:34:11.533Z,24.70
2022-07-26T16:36:40.253Z,24.80
2022-07-26T16:39:09.109Z,24.80
2022-07-26T16:41:38.195Z,24.70
2022-07-26T16:44:06.734Z,24.70
2022-07-26T16:46:35.177Z,24.60
2022-07-26T16:49:05.320Z,24.50
2022-07-26T16:51:33.832Z,24.50
2022-07-26T16:54:02.264Z,24.40
2022-07-26T16:56:30.683Z,24.40
2022-07-26T16:58:59.108Z,24.30
2022-07-26T17:01:27.621Z,24.20
2022-07-26T17:03:56.191Z,24.10
2022-07-26T17:06:26.058Z,24.00
2022-07-26T17:08:54.430Z,23.80
2022-07-26T17:11:25.064Z,23.80
2022-07-26T17:13:53.999Z,23.70
2022-07-26T17:16:24.597Z,23.70
2022-07-26T17:18:53.939Z,23.60
2022-07-26T17:21:22.964Z,23.60
2022-07-26T17:23:53.254Z,23.50
2022-07-26T17:26:21.792Z,23.50
2022-07-26T17:28:50.142Z,23.40
2022-07-26T17:31:18.575Z,23.40
2022-07-26T17:33:46.922Z,23.20
2022-07-26T17:36:23.973Z,23.10
2022-07-26T17:38:54.851Z,23.00
2022-07-26T17:41:32.677Z,23.00
2022-07-26T17:44:03.836Z,22.90
2022-07-26T17:46:33.480Z,22.80
2022-07-26T17:49:02.034Z,22.80
2022-07-26T17:51:30.445Z,22.70
2022-07-26T17:54:00.302Z,22.70
2022-07-26T17:56:28.962Z,22.60
2022-07-26T17:58:57.879Z,22.60
2022-07-26T18:01:26.621Z,22.50
2022-07-26T18:03:55.074Z,22.50
2022-07-26T18:06:23.474Z,22.50
2022-07-26T18:08:52.070Z,22.50
2022-07-26T18:11:25.703Z,22.50
2022-07-26T18:13:54.215Z,22.40
2022-07-26T18:16:22.642Z,22.20
2022-07-26T18:18:51.209Z,22.20
2022-07-26T18:21:19.735Z,22.10
2022-07-26T18:24:14.214Z,22.00
2022-07-26T18:26:40.037Z,21.80
2022-07-26T18:29:09.180Z,21.80
2022-07-26T18:31:37.782Z,21.70
2022-07-26T18:34:06.906Z,21.70
2022-07-26T18:36:35.485Z,21.70
2022-07-26T18:39:04.057Z,21.70
2022-07-26T18:41:32.847Z,21.70
2022-07-26T18:44:04.087Z,21.60
2022-07-26T18:46:32.399Z,21.50
2022-07-26T18:49:02.475Z,21.40
2022-07-26T18:51:31.759Z,21.40
2022-07-26T18:54:00.227Z,21.40
2022-07-26T18:56:28.603Z,21.30
2022-07-26T18:59:02.859Z,21.30
2022-07-26T19:01:31.355Z,21.20
2022-07-26T19:04:02.384Z,21.20
2022-07-26T19:06:35.435Z,21.20
2022-07-26T19:09:03.795Z,21.10
2022-07-26T19:11:33.133Z,21.00
2022-07-26T19:14:07.567Z,21.00
2022-07-26T19:16:35.995Z,21.00
2022-07-26T19:19:04.492Z,20.90
2022-07-26T19:21:32.919Z,20.90
2022-07-26T19:24:01.273Z,20.90
2022-07-26T19:26:30.716Z,20.90
2022-07-26T19:28:59.187Z,20.80
2022-07-26T19:31:28.970Z,20.70
2022-07-26T19:33:57.476Z,20.60
2022-07-26T19:36:26.687Z,20.60
2022-07-26T19:38:56.575Z,20.50
2022-07-26T19:41:25.026Z,20.50
2022-07-26T19:43:53.385Z,20.50
2022-07-26T19:46:21.877Z,20.40
2022-07-26T19:48:51.708Z,20.30
2022-07-26T19:51:20.240Z,20.20
2022-07-26T19:53:48.683Z,20.20
2022-07-26T19:56:17.062Z,20.10
2022-07-26T19:58:46.863Z,20.00
2022-07-26T20:01:15.327Z,19.90
2022-07-26T20:03:43.745Z,19.70
2022-07-26T20:06:13.455Z,19.60
2022-07-26T20:08:42.126Z,19.60
2022-07-26T20:11:11.100Z,19.50
2022-07-26T20:13:39.532Z,19.50
2022-07-26T20:16:07.967Z,19.50
2022-07-26T20:18:36.600Z,19.50
2022-07-26T20:21:05.120Z,19.50
2022-07-26T20:23:34.921Z,19.50
2022-07-26T20:26:03.332Z,19.40
2022-07-26T20:28:31.794Z,19.30
2022-07-26T20:31:00.305Z,19.40
2022-07-26T20:33:28.662Z,19.30
2022-07-26T20:35:57.004Z,19.20
2022-07-26T20:38:25.375Z,19.10
2022-07-26T20:40:55.191Z,19.10
2022-07-26T20:43:25.582Z,18.90
2022-07-26T20:45:56.208Z,18.80
2022-07-26T20:48:24.583Z,18.80
2022-07-26T20:50:52.974Z,18.70
2022-07-26T20:53:21.416Z,18.60
2022-07-26T20:55:49.794Z,18.50
2022-07-26T20:58:20.022Z,18.50
2022-07-26T21:00:48.641Z,18.40
2022-07-26T21:03:17.287Z,18.40
2022-07-26T21:05:45.641Z,18.30
2022-07-26T21:08:14.444Z,18.30
2022-07-26T21:10:42.920Z,18.20
2022-07-26T21:13:11.242Z,18.10
2022-07-26T21:15:42.129Z,18.10
2022-07-26T21:18:12.364Z,18.00
2022-07-26T21:20:41.738Z,18.00
2022-07-26T21:23:17.467Z,17.90
2022-07-26T21:25:46.783Z,17.80
2022-07-26T21:28:15.158Z,17.80
2022-07-26T21:30:44.876Z,17.70
2022-07-26T21:33:13.433Z,17.70
2022-07-26T21:35:42.591Z,17.70
2022-07-26T21:38:11.011Z,17.70
2022-07-26T21:40:39.519Z,17.60
2022-07-26T21:43:08.387Z,17.60
2022-07-26T21:45:36.942Z,17.60
2022-07-26T21:48:07.790Z,17.60
2022-07-26T21:50:36.206Z,17.60
2022-07-26T21:53:04.571Z,17.60
2022-07-26T21:55:33.091Z,17.60
2022-07-26T21:58:01.463Z,17.60
2022-07-26T22:00:29.770Z,17.60
2022-07-26T22:02:58.164Z,17.60
2022-07-26T22:05:38.027Z,17.60
2022-07-26T22:08:07.987Z,17.60
2022-07-26T22:10:44.316Z,17.60
2022-07-26T22:13:13.475Z,17.50
2022-07-26T22:15:42.299Z,17.50
2022-07-26T22:18:10.688Z,17.50
2022-07-26T22:20:41.315Z,17.50
2022-07-26T22:23:13.138Z,17.40
2022-07-26T22:25:41.638Z,17.40
2022-07-26T22:28:11.514Z,17.40
2022-07-26T22:30:40.634Z,17.30
2022-07-26T22:33:11.697Z,17.30
2022-07-26T22:35:41.509Z,17.20
2022-07-26T22:38:11.708Z,17.20
2022-07-26T22:40:41.873Z,17.10
2022-07-26T22:43:11.332Z,17.10
2022-07-26T22:45:40.284Z,17.00
2022-07-26T22:48:10.385Z,17.00
2022-07-26T22:50:38.793Z,17.00
2022-07-26T22:53:08.546Z,16.90
2022-07-26T22:55:37.274Z,16.90
2022-07-26T22:58:05.764Z,16.90
2022-07-26T23:00:34.304Z,16.90
2022-07-26T23:03:04.335Z,16.80
2022-07-26T23:05:45.254Z,16.80
2022-07-26T23:11:05.174Z,16.70
2022-07-26T23:13:33.766Z,16.70
2022-07-26T23:16:02.305Z,16.70
2022-07-26T23:18:31.111Z,16.60
2022-07-26T23:20:59.439Z,16.60
2022-07-26T23:23:30.201Z,16.60
2022-07-26T23:25:59.620Z,16.60
2022-07-26T23:28:37.582Z,16.50
2022-07-26T23:31:11.624Z,16.50
2022-07-26T23:33:52.407Z,16.50
2022-07-26T23:36:27.360Z,16.40
2022-07-26T23:38:58.321Z,16.40
2022-07-26T23:41:27.557Z,16.40
2022-07-26T23:43:56.291Z,16.30
2022-07-26T23:46:25.610Z,16.30
2022-07-26T23:48:54.540Z,16.30
2022-07-26T23:51:23.928Z,16.20
2022-07-26T23:53:53.096Z,16.20
2022-07-26T23:56:23.011Z,16.10
2022-07-26T23:58:51.811Z,16.10
